createdAt,value
2023-01-18T00:00:47.865Z,93.24
2023-01-18T00:03:14.564Z,93.50
2023-01-18T00:05:42.120Z,93.49
2023-01-18T00:08:10.962Z,93.13
2023-01-18T00:10:38.147Z,92.31
2023-01-18T00:13:05.336Z,92.42
2023-01-18T00:15:32.692Z,91.86
2023-01-18T00:17:59.033Z,91.84
2023-01-18T00:20:29.925Z,92.40
2023-01-18T00:22:58.982Z,91.99
2023-01-18T00:25:25.839Z,92.11
2023-01-18T00:27:53.705Z,92.33
2023-01-18T00:30:23.860Z,92.36
2023-01-18T00:32:54.689Z,92.06
2023-01-18T00:35:22.130Z,91.68
2023-01-18T00:37:49.592Z,91.36
2023-01-18T00:40:15.943Z,91.94
2023-01-18T00:43:01.045Z,92.40
2023-01-18T00:45:27.971Z,92.25
2023-01-18T00:47:54.420Z,91.61
2023-01-18T00:50:22.326Z,91.86
2023-01-18T00:52:50.062Z,91.81
2023-01-18T00:55:17.045Z,91.62
2023-01-18T00:57:43.667Z,91.70
2023-01-18T01:00:15.099Z,92.21
2023-01-18T01:02:42.143Z,92.05
2023-01-18T01:05:39.103Z,92.31
2023-01-18T01:08:08.732Z,92.77
2023-01-18T01:10:35.434Z,92.39
2023-01-18T01:13:20.721Z,92.21
2023-01-18T01:16:05.524Z,92.21
2023-01-18T01:18:50.280Z,92.02
2023-01-18T01:21:35.027Z,91.35
2023-01-18T01:24:19.835Z,91.75
2023-01-18T01:26:46.189Z,91.70
2023-01-18T01:29:12.513Z,90.85
2023-01-18T01:31:39.308Z,91.35
2023-01-18T01:34:05.742Z,91.06
2023-01-18T01:36:32.240Z,90.90
2023-01-18T01:38:58.653Z,90.93
2023-01-18T01:41:28.229Z,91.48
2023-01-18T01:44:14.449Z,90.86
2023-01-18T01:46:52.607Z,91.11
2023-01-18T01:49:32.022Z,90.64
2023-01-18T01:52:06.097Z,91.45
2023-01-18T01:54:38.757Z,91.24
2023-01-18T01:57:14.201Z,91.90
2023-01-18T01:59:53.179Z,91.71
2023-01-18T02:02:19.885Z,91.93
2023-01-18T02:04:46.435Z,92.18
2023-01-18T02:07:13.082Z,92.13
2023-01-18T02:09:40.146Z,91.50
2023-01-18T02:12:06.599Z,91.99
2023-01-18T02:14:33.328Z,91.71
2023-01-18T02:17:15.410Z,91.58
2023-01-18T02:20:20.115Z,91.47
2023-01-18T02:23:23.305Z,91.22
2023-01-18T02:26:17.798Z,91.62
2023-01-18T02:29:10.006Z,91.56
2023-01-18T02:31:46.721Z,91.61
2023-01-18T02:34:25.815Z,90.94
2023-01-18T02:37:19.875Z,91.18
2023-01-18T02:39:52.381Z,91.14
2023-01-18T02:42:40.272Z,91.17
2023-01-18T02:45:54.063Z,91.02
2023-01-18T02:48:22.865Z,91.46
2023-01-18T02:50:50.072Z,91.15
2023-01-18T02:53:16.905Z,91.02
2023-01-18T02:55:59.362Z,91.21
2023-01-18T02:58:33.518Z,90.86
2023-01-18T03:01:09.125Z,91.00
2023-01-18T03:03:36.046Z,90.68
2023-01-18T03:06:05.479Z,90.58
2023-01-18T03:08:48.459Z,90.66
2023-01-18T03:11:31.219Z,91.42
2023-01-18T03:14:16.055Z,90.89
2023-01-18T03:17:08.644Z,90.37
2023-01-18T03:20:03.819Z,90.71
2023-01-18T03:22:55.410Z,90.16
2023-01-18T03:25:31.246Z,91.23
2023-01-18T03:28:22.244Z,90.36
2023-01-18T03:31:09.541Z,90.83
2023-01-18T03:33:47.422Z,90.76
2023-01-18T03:36:33.866Z,90.79
2023-01-18T03:39:10.514Z,90.60
2023-01-18T03:41:42.577Z,90.87
2023-01-18T03:44:19.012Z,90.46
2023-01-18T03:46:45.575Z,91.17
2023-01-18T03:49:12.787Z,90.69
2023-01-18T03:52:20.745Z,90.81
2023-01-18T03:55:00.933Z,90.78
2023-01-18T03:57:43.578Z,90.76
2023-01-18T04:00:11.297Z,90.80
2023-01-18T04:02:37.940Z,91.05
2023-01-18T04:05:05.704Z,90.81
2023-01-18T04:07:32.958Z,90.47
2023-01-18T04:10:00.334Z,90.52
2023-01-18T04:12:27.507Z,90.30
2023-01-18T04:14:53.899Z,90.33
2023-01-18T04:17:20.656Z,90.41
2023-01-18T04:19:47.032Z,91.03
2023-01-18T04:22:14.015Z,90.53
2023-01-18T04:24:40.356Z,90.49
2023-01-18T04:27:06.808Z,90.63
2023-01-18T04:29:33.145Z,90.18
2023-01-18T04:31:59.822Z,90.84
2023-01-18T04:34:26.183Z,90.81
2023-01-18T04:36:53.661Z,89.97
2023-01-18T04:39:20.744Z,89.99
2023-01-18T04:41:47.047Z,90.31
2023-01-18T04:44:13.665Z,90.30
2023-01-18T04:46:40.201Z,90.09
2023-01-18T04:49:10.952Z,90.23
2023-01-18T04:51:38.813Z,90.44
2023-01-18T04:54:05.389Z,90.28
2023-01-18T04:56:31.786Z,90.38
2023-01-18T04:58:58.165Z,90.54
2023-01-18T05:01:25.060Z,89.96
2023-01-18T05:03:52.875Z,89.90
2023-01-18T05:06:22.096Z,90.27
2023-01-18T05:08:48.798Z,89.92
2023-01-18T05:11:17.812Z,90.74
2023-01-18T05:13:45.527Z,90.65
2023-01-18T05:16:17.868Z,90.98
2023-01-18T05:18:45.016Z,90.44
2023-01-18T05:21:11.644Z,90.54
2023-01-18T05:23:40.206Z,90.74
2023-01-18T05:26:16.187Z,90.47
2023-01-18T05:28:42.939Z,90.68
2023-01-18T05:31:09.657Z,90.31
2023-01-18T05:33:36.332Z,91.12
2023-01-18T05:36:02.772Z,90.66
2023-01-18T05:38:47.633Z,90.60
2023-01-18T05:41:14.044Z,90.42
2023-01-18T05:43:40.508Z,90.25
2023-01-18T05:46:06.961Z,90.30
2023-01-18T05:48:33.339Z,90.25
2023-01-18T05:50:59.710Z,90.92
2023-01-18T05:53:26.447Z,90.59
2023-01-18T05:56:00.789Z,90.71
2023-01-18T05:58:27.815Z,90.49
2023-01-18T06:00:55.799Z,90.45
2023-01-18T06:03:23.611Z,90.31
2023-01-18T06:05:51.398Z,90.44
2023-01-18T06:08:18.579Z,90.69
2023-01-18T06:10:51.545Z,90.65
2023-01-18T06:13:17.911Z,90.82
2023-01-18T06:15:44.565Z,89.94
2023-01-18T06:18:10.978Z,90.16
2023-01-18T06:20:37.333Z,90.42
2023-01-18T06:23:03.878Z,90.33
2023-01-18T06:25:30.279Z,90.74
2023-01-18T06:27:56.598Z,90.92
2023-01-18T06:30:22.988Z,90.69
2023-01-18T06:32:50.424Z,90.80
2023-01-18T06:35:16.925Z,90.46
2023-01-18T06:37:45.524Z,91.13
2023-01-18T06:40:12.964Z,91.03
2023-01-18T06:42:40.166Z,91.04
2023-01-18T06:45:07.170Z,91.07
2023-01-18T06:47:34.837Z,90.55
2023-01-18T06:50:01.164Z,90.78
2023-01-18T06:52:27.546Z,91.00
2023-01-18T06:54:54.092Z,90.50
2023-01-18T06:57:20.523Z,91.23
2023-01-18T06:59:46.870Z,90.79
2023-01-18T07:02:14.920Z,91.12
2023-01-18T07:04:44.211Z,91.28
2023-01-18T07:07:11.431Z,91.42
2023-01-18T07:09:38.213Z,92.11
2023-01-18T07:12:04.797Z,92.19
2023-01-18T07:14:31.183Z,92.34
2023-01-18T07:16:57.823Z,92.01
2023-01-18T07:19:24.233Z,91.76
2023-01-18T07:21:53.569Z,91.53
2023-01-18T07:24:20.507Z,91.37
2023-01-18T07:26:46.884Z,91.95
2023-01-18T07:29:13.317Z,91.97
2023-01-18T07:31:40.535Z,92.42
2023-01-18T07:34:07.215Z,92.29
2023-01-18T07:36:34.207Z,92.44
2023-01-18T07:39:03.061Z,92.56
2023-01-18T07:41:30.988Z,92.47
2023-01-18T07:43:57.755Z,92.49
2023-01-18T07:46:26.005Z,92.46
2023-01-18T07:48:52.656Z,92.09
2023-01-18T07:51:21.592Z,92.60
2023-01-18T07:53:48.705Z,92.92
2023-01-18T07:56:17.716Z,92.93
2023-01-18T07:58:45.239Z,92.54
2023-01-18T08:01:15.238Z,93.10
2023-01-18T08:03:43.300Z,92.83
2023-01-18T08:06:10.270Z,93.49
2023-01-18T08:08:37.078Z,93.39
2023-01-18T08:11:06.005Z,93.31
2023-01-18T08:13:32.679Z,92.85
2023-01-18T08:16:01.360Z,92.54
2023-01-18T08:18:28.444Z,92.56
2023-01-18T08:20:55.358Z,92.81
2023-01-18T08:23:22.607Z,92.76
2023-01-18T08:25:49.566Z,92.84
2023-01-18T08:28:16.124Z,92.73
2023-01-18T08:30:45.650Z,92.80
2023-01-18T08:33:12.551Z,92.91
2023-01-18T08:35:45.192Z,92.87
2023-01-18T08:38:13.526Z,92.72
2023-01-18T08:40:40.252Z,93.40
2023-01-18T08:43:07.093Z,93.54
2023-01-18T08:45:37.415Z,93.27
2023-01-18T08:48:06.150Z,92.77
2023-01-18T08:50:33.787Z,93.74
2023-01-18T08:53:01.116Z,93.19
2023-01-18T08:55:29.572Z,93.50
2023-01-18T08:57:57.748Z,92.95
2023-01-18T09:00:28.621Z,93.39
2023-01-18T09:02:55.487Z,93.23
2023-01-18T09:05:22.550Z,93.56
2023-01-18T09:07:50.958Z,93.83
2023-01-18T09:10:17.463Z,93.77
2023-01-18T09:12:43.892Z,94.01
2023-01-18T09:15:10.685Z,93.93
2023-01-18T09:17:37.083Z,93.66
2023-01-18T09:20:07.544Z,93.49
2023-01-18T09:22:34.080Z,93.22
2023-01-18T09:25:00.428Z,93.89
2023-01-18T09:27:26.776Z,93.63
2023-01-18T09:29:53.172Z,93.68
2023-01-18T09:32:20.117Z,93.86
2023-01-18T09:34:50.510Z,94.01
2023-01-18T09:37:19.081Z,94.39
2023-01-18T09:39:51.871Z,94.00
2023-01-18T09:42:22.624Z,94.50
2023-01-18T09:44:55.669Z,94.77
2023-01-18T09:47:34.484Z,94.80
2023-01-18T09:50:13.124Z,94.65
2023-01-18T09:52:54.970Z,93.74
2023-01-18T09:55:41.858Z,94.54
2023-01-18T09:58:28.829Z,94.40
2023-01-18T10:01:02.605Z,94.03
2023-01-18T10:03:34.880Z,93.53
2023-01-18T10:06:11.024Z,93.46
2023-01-18T10:08:49.738Z,93.07
2023-01-18T10:11:47.993Z,93.16
2023-01-18T10:14:48.930Z,93.62
2023-01-18T10:17:23.864Z,92.94
2023-01-18T10:19:50.878Z,92.66
2023-01-18T10:22:20.477Z,92.55
2023-01-18T10:24:53.199Z,92.70
2023-01-18T10:28:04.603Z,92.98
2023-01-18T10:30:44.290Z,92.60
2023-01-18T10:33:23.031Z,92.97
2023-01-18T10:35:56.990Z,93.10
2023-01-18T10:38:26.817Z,93.05
2023-01-18T10:41:00.537Z,92.60
2023-01-18T10:43:29.995Z,92.14
2023-01-18T10:45:56.512Z,91.99
2023-01-18T10:48:32.062Z,92.69
2023-01-18T10:51:05.713Z,92.70
2023-01-18T10:53:35.187Z,92.51
2023-01-18T10:56:07.562Z,92.90
2023-01-18T10:58:45.351Z,92.47
2023-01-18T11:01:35.076Z,92.53
2023-01-18T11:04:08.113Z,92.76
2023-01-18T11:06:50.217Z,92.38
2023-01-18T11:10:11.135Z,92.45
2023-01-18T11:12:47.852Z,91.70
2023-01-18T11:15:14.288Z,91.72
2023-01-18T11:17:50.360Z,91.25
2023-01-18T11:20:21.737Z,91.42
2023-01-18T11:23:03.649Z,91.34
2023-01-18T11:25:37.598Z,90.59
2023-01-18T11:28:07.428Z,90.31
2023-01-18T11:30:34.706Z,89.62
2023-01-18T11:33:01.323Z,89.57
2023-01-18T11:35:33.895Z,89.42
2023-01-18T11:38:02.778Z,88.91
2023-01-18T11:40:32.251Z,88.27
2023-01-18T11:43:03.681Z,87.93
2023-01-18T11:45:40.280Z,87.68
2023-01-18T11:48:13.064Z,87.46
2023-01-18T11:50:48.613Z,87.41
2023-01-18T11:53:27.092Z,87.15
2023-01-18T11:56:06.538Z,87.22
2023-01-18T11:58:35.318Z,86.09
2023-01-18T12:01:10.558Z,86.05
2023-01-18T12:03:52.049Z,85.93
2023-01-18T12:06:56.448Z,85.77
2023-01-18T12:10:00.354Z,85.40
2023-01-18T12:13:00.668Z,85.12
2023-01-18T12:15:51.963Z,84.64
2023-01-18T12:18:38.145Z,84.33
2023-01-18T12:21:11.818Z,84.37
2023-01-18T12:23:47.183Z,84.26
2023-01-18T12:26:25.343Z,83.68
2023-01-18T12:29:09.977Z,83.21
2023-01-18T12:31:49.431Z,83.04
2023-01-18T12:34:22.076Z,82.42
2023-01-18T12:37:01.661Z,81.99
2023-01-18T12:39:37.361Z,82.33
2023-01-18T12:42:09.914Z,81.50
2023-01-18T12:44:57.910Z,81.18
2023-01-18T12:47:34.937Z,80.95
2023-01-18T12:50:12.639Z,79.98
2023-01-18T12:52:51.045Z,79.70
2023-01-18T12:55:25.779Z,81.39
2023-01-18T12:57:56.353Z,82.27
2023-01-18T13:00:36.154Z,80.53
2023-01-18T13:03:09.939Z,79.82
2023-01-18T13:05:52.381Z,79.12
2023-01-18T13:08:40.244Z,78.36
2023-01-18T13:11:12.928Z,77.74
2023-01-18T13:13:41.793Z,76.74
2023-01-18T13:16:29.577Z,76.12
2023-01-18T13:19:07.081Z,75.38
2023-01-18T13:21:43.924Z,74.27
2023-01-18T13:24:29.601Z,72.98
2023-01-18T13:27:10.959Z,72.61
2023-01-18T13:29:39.084Z,72.26
2023-01-18T13:32:35.267Z,71.52
2023-01-18T13:35:19.499Z,71.21
2023-01-18T13:37:50.892Z,70.99
2023-01-18T13:40:27.628Z,70.78
2023-01-18T13:42:54.050Z,70.98
2023-01-18T13:45:23.522Z,71.02
2023-01-18T13:48:42.305Z,70.33
2023-01-18T13:51:09.246Z,70.17
2023-01-18T13:53:50.091Z,70.02
2023-01-18T13:56:37.443Z,69.40
2023-01-18T13:59:12.804Z,69.14
2023-01-18T14:01:45.653Z,68.83
2023-01-18T14:04:24.022Z,68.65
2023-01-18T14:06:51.454Z,68.76
2023-01-18T14:09:28.206Z,69.40
2023-01-18T14:11:56.878Z,68.20
2023-01-18T14:14:28.181Z,67.82
2023-01-18T14:17:17.089Z,66.35
2023-01-18T14:19:52.178Z,65.45
2023-01-18T14:22:37.187Z,65.01
2023-01-18T14:25:41.846Z,65.10
2023-01-18T14:28:13.494Z,65.10
2023-01-18T14:30:44.830Z,65.10
2023-01-18T14:33:11.160Z,65.26
2023-01-18T14:35:37.660Z,64.46
2023-01-18T14:38:18.867Z,64.11
2023-01-18T14:40:52.568Z,62.67
2023-01-18T14:43:29.137Z,62.95
2023-01-18T14:46:02.287Z,61.97
2023-01-18T14:48:31.224Z,61.66
2023-01-18T14:50:59.203Z,61.93
2023-01-18T14:53:35.665Z,61.21
2023-01-18T14:56:14.064Z,61.56
2023-01-18T14:58:51.706Z,61.01
2023-01-18T15:01:37.087Z,61.50
2023-01-18T15:04:06.502Z,61.42
2023-01-18T15:06:45.221Z,61.48
2023-01-18T15:09:12.907Z,61.63
2023-01-18T15:11:42.130Z,61.73
2023-01-18T15:14:15.593Z,62.48
2023-01-18T15:16:42.707Z,63.11
2023-01-18T15:19:17.606Z,63.81
2023-01-18T15:21:45.993Z,64.01
2023-01-18T15:24:22.640Z,64.65
2023-01-18T15:26:57.081Z,64.99
2023-01-18T15:29:32.749Z,65.11
2023-01-18T15:32:05.328Z,65.31
2023-01-18T15:34:36.072Z,65.91
2023-01-18T15:37:12.223Z,66.33
2023-01-18T15:40:08.296Z,66.26
2023-01-18T15:42:39.567Z,66.97
2023-01-18T15:45:17.650Z,67.13
2023-01-18T15:47:50.044Z,67.81
2023-01-18T15:50:22.173Z,67.81
2023-01-18T15:53:02.022Z,68.22
2023-01-18T15:55:53.309Z,68.28
2023-01-18T15:58:25.819Z,68.31
2023-01-18T16:01:01.081Z,68.77
2023-01-18T16:03:40.049Z,69.04
2023-01-18T16:06:12.920Z,68.82
2023-01-18T16:09:12.128Z,69.27
2023-01-18T16:11:51.884Z,69.42
2023-01-18T16:14:28.613Z,69.32
2023-01-18T16:16:57.379Z,69.33
2023-01-18T16:19:43.577Z,69.74
2023-01-18T16:22:28.093Z,69.78
2023-01-18T16:24:57.576Z,70.16
2023-01-18T16:27:27.181Z,70.23
2023-01-18T16:29:59.718Z,70.26
2023-01-18T16:32:29.009Z,70.14
2023-01-18T16:34:59.865Z,70.42
2023-01-18T16:37:26.588Z,70.65
2023-01-18T16:39:55.238Z,70.65
2023-01-18T16:42:29.659Z,70.90
2023-01-18T16:45:03.933Z,71.04
2023-01-18T16:47:30.297Z,71.09
2023-01-18T16:49:56.672Z,71.43
2023-01-18T16:52:23.236Z,71.25
2023-01-18T16:54:49.673Z,71.44
2023-01-18T16:57:21.817Z,71.71
2023-01-18T16:59:48.997Z,71.47
2023-01-18T17:02:15.865Z,71.69
2023-01-18T17:04:42.790Z,71.91
2023-01-18T17:07:10.140Z,72.14
2023-01-18T17:09:48.029Z,72.18
2023-01-18T17:12:15.587Z,72.32
2023-01-18T17:14:42.097Z,72.59
2023-01-18T17:17:09.626Z,72.67
2023-01-18T17:19:37.586Z,72.89
2023-01-18T17:22:04.423Z,72.85
2023-01-18T17:24:30.874Z,72.94
2023-01-18T17:26:57.524Z,73.27
2023-01-18T17:29:25.190Z,73.14
2023-01-18T17:31:53.115Z,73.13
2023-01-18T17:34:28.190Z,73.15
2023-01-18T17:36:57.071Z,73.40
2023-01-18T17:39:31.724Z,73.57
2023-01-18T17:42:12.046Z,73.29
2023-01-18T17:44:38.853Z,74.06
2023-01-18T17:47:05.437Z,74.27
2023-01-18T17:49:32.214Z,74.81
2023-01-18T17:51:58.572Z,75.01
2023-01-18T17:54:25.231Z,75.48
2023-01-18T17:56:53.097Z,75.64
2023-01-18T17:59:19.824Z,76.22
2023-01-18T18:01:46.404Z,76.22
2023-01-18T18:04:12.950Z,76.79
2023-01-18T18:06:46.161Z,77.35
2023-01-18T18:09:19.839Z,77.42
2023-01-18T18:11:46.287Z,77.79
2023-01-18T18:14:12.646Z,77.66
2023-01-18T18:16:43.600Z,77.93
2023-01-18T18:19:14.399Z,78.62
2023-01-18T18:21:42.125Z,78.10
2023-01-18T18:24:08.561Z,77.71
2023-01-18T18:26:35.203Z,78.02
2023-01-18T18:29:01.596Z,78.22
2023-01-18T18:31:29.685Z,77.98
2023-01-18T18:33:56.130Z,78.06
2023-01-18T18:36:22.829Z,78.56
2023-01-18T18:38:49.157Z,78.72
2023-01-18T18:41:15.575Z,78.74
2023-01-18T18:43:41.914Z,79.10
2023-01-18T18:46:08.363Z,79.50
2023-01-18T18:48:34.849Z,79.62
2023-01-18T18:51:01.154Z,79.82
2023-01-18T18:53:37.512Z,79.51
2023-01-18T18:56:10.254Z,79.37
2023-01-18T18:58:37.920Z,78.89
2023-01-18T19:01:05.484Z,79.01
2023-01-18T19:03:32.827Z,78.75
2023-01-18T19:05:59.249Z,78.84
2023-01-18T19:08:25.721Z,79.58
2023-01-18T19:10:52.175Z,79.03
2023-01-18T19:13:19.149Z,79.17
2023-01-18T19:15:46.835Z,79.76
2023-01-18T19:18:14.362Z,79.88
2023-01-18T19:20:41.002Z,80.19
2023-01-18T19:23:09.028Z,80.11
2023-01-18T19:25:37.897Z,79.88
2023-01-18T19:28:04.501Z,80.34
2023-01-18T19:30:31.600Z,80.30
2023-01-18T19:33:00.124Z,80.08
2023-01-18T19:35:26.983Z,80.23
2023-01-18T19:37:53.568Z,80.12
2023-01-18T19:40:20.885Z,80.11
2023-01-18T19:42:54.356Z,80.33
2023-01-18T19:45:27.806Z,80.00
2023-01-18T19:47:57.575Z,80.08
2023-01-18T19:50:24.507Z,80.86
2023-01-18T19:52:50.880Z,81.46
2023-01-18T19:55:17.208Z,81.89
2023-01-18T19:57:43.680Z,80.90
2023-01-18T20:00:10.794Z,80.18
2023-01-18T20:02:41.194Z,79.90
2023-01-18T20:05:08.447Z,79.81
2023-01-18T20:07:37.245Z,79.93
2023-01-18T20:10:03.816Z,79.96
2023-01-18T20:12:31.924Z,79.66
2023-01-18T20:14:58.515Z,79.62
2023-01-18T20:17:24.977Z,79.34
2023-01-18T20:19:54.029Z,79.63
2023-01-18T20:22:21.546Z,79.64
2023-01-18T20:24:47.951Z,79.29
2023-01-18T20:27:16.609Z,79.45
2023-01-18T20:29:43.710Z,80.09
2023-01-18T20:32:16.170Z,80.33
2023-01-18T20:34:47.295Z,80.43
2023-01-18T20:37:15.322Z,80.76
2023-01-18T20:39:41.923Z,80.63
2023-01-18T20:42:08.664Z,81.12
2023-01-18T20:44:35.888Z,81.10
2023-01-18T20:47:02.578Z,80.88
2023-01-18T20:49:44.026Z,81.24
2023-01-18T20:52:10.788Z,81.61
2023-01-18T20:54:37.624Z,81.36
2023-01-18T20:57:06.377Z,80.99
2023-01-18T20:59:33.030Z,81.53
2023-01-18T21:01:59.592Z,81.15
2023-01-18T21:04:26.171Z,81.43
2023-01-18T21:06:52.558Z,81.31
2023-01-18T21:09:18.934Z,80.83
2023-01-18T21:11:45.530Z,81.14
2023-01-18T21:14:12.584Z,81.03
2023-01-18T21:16:39.165Z,81.73
2023-01-18T21:19:05.530Z,81.18
2023-01-18T21:21:32.079Z,81.86
2023-01-18T21:23:59.974Z,81.43
2023-01-18T21:26:26.481Z,81.70
2023-01-18T21:28:53.088Z,81.59
2023-01-18T21:31:19.753Z,82.01
2023-01-18T21:33:46.291Z,81.85
2023-01-18T21:36:15.498Z,81.95
2023-01-18T21:38:41.924Z,82.08
2023-01-18T21:41:27.488Z,82.18
2023-01-18T21:44:12.797Z,81.71
2023-01-18T21:46:44.497Z,82.13
2023-01-18T21:49:42.962Z,81.84
2023-01-18T21:52:36.102Z,82.20
2023-01-18T21:55:02.483Z,81.98
2023-01-18T21:57:28.802Z,81.96
2023-01-18T21:59:55.291Z,82.49
2023-01-18T22:02:22.409Z,82.35
2023-01-18T22:04:59.013Z,82.36
2023-01-18T22:07:30.152Z,82.62
2023-01-18T22:10:05.963Z,82.73
2023-01-18T22:12:35.071Z,82.73
2023-01-18T22:15:02.887Z,82.71
2023-01-18T22:17:29.758Z,82.84
2023-01-18T22:19:56.393Z,82.91
2023-01-18T22:22:22.822Z,82.89
2023-01-18T22:24:49.152Z,83.00
2023-01-18T22:27:15.469Z,83.45
2023-01-18T22:29:41.859Z,83.40
2023-01-18T22:32:08.186Z,83.00
2023-01-18T22:34:34.624Z,83.27
2023-01-18T22:37:01.134Z,82.79
2023-01-18T22:39:27.464Z,82.84
2023-01-18T22:41:53.834Z,83.43
2023-01-18T22:44:23.329Z,83.45
2023-01-18T22:46:49.879Z,83.39
2023-01-18T22:49:16.322Z,83.61
2023-01-18T22:51:43.433Z,83.49
2023-01-18T22:54:09.914Z,83.53
2023-01-18T22:56:36.419Z,84.04
2023-01-18T22:59:02.815Z,84.16
2023-01-18T23:01:31.986Z,83.84
2023-01-18T23:04:01.340Z,84.00
2023-01-18T23:06:28.960Z,83.36
2023-01-18T23:08:56.391Z,83.52
2023-01-18T23:11:29.117Z,83.65
2023-01-18T23:14:16.079Z,83.89
2023-01-18T23:17:02.062Z,83.54
2023-01-18T23:19:30.644Z,83.52
2023-01-18T23:21:57.444Z,83.50
2023-01-18T23:24:24.175Z,83.59
2023-01-18T23:26:51.084Z,83.78
2023-01-18T23:29:18.419Z,83.85
2023-01-18T23:31:44.957Z,83.65
2023-01-18T23:34:11.429Z,84.01
2023-01-18T23:36:37.836Z,83.97
2023-01-18T23:39:23.097Z,84.06
2023-01-18T23:42:07.948Z,84.10
2023-01-18T23:44:52.625Z,83.89
2023-01-18T23:47:37.860Z,84.05
2023-01-18T23:50:23.117Z,84.49
2023-01-18T23:53:07.943Z,84.44
2023-01-18T23:55:34.322Z,84.37
2023-01-18T23:58:01.148Z,83.89
